createdAt,value
2022-08-27T00:00:51.683Z,14.93
2022-08-27T00:03:20.450Z,15.20
2022-08-27T00:05:48.981Z,15.52
2022-08-27T00:08:17.486Z,14.82
2022-08-27T00:10:45.595Z,15.00
2022-08-27T00:13:15.953Z,16.15
2022-08-27T00:15:44.577Z,18.58
2022-08-27T00:18:13.617Z,15.85
2022-08-27T00:20:41.776Z,17.85
2022-08-27T00:23:10.534Z,16.30
2022-08-27T00:25:39.054Z,15.32
2022-08-27T00:28:07.490Z,16.45
2022-08-27T00:30:36.935Z,18.15
2022-08-27T00:33:06.347Z,17.65
2022-08-27T00:35:34.681Z,16.92
2022-08-27T00:38:03.169Z,17.45
2022-08-27T00:40:31.611Z,16.95
2022-08-27T00:43:03.438Z,15.82
2022-08-27T00:45:42.317Z,16.95
2022-08-27T00:48:15.886Z,16.25
2022-08-27T00:50:54.153Z,16.95
2022-08-27T00:53:29.615Z,15.00
2022-08-27T00:56:05.642Z,15.93
2022-08-27T00:58:37.884Z,16.08
2022-08-27T01:01:12.759Z,15.48
2022-08-27T01:03:47.682Z,15.00
2022-08-27T01:06:19.024Z,13.52
2022-08-27T01:08:53.756Z,15.35
2022-08-27T01:11:22.829Z,13.98
2022-08-27T01:14:00.454Z,15.65
2022-08-27T01:16:37.160Z,15.30
2022-08-27T01:19:12.542Z,15.05
2022-08-27T01:22:09.076Z,14.25
2022-08-27T01:24:44.849Z,16.58
2022-08-27T01:27:20.717Z,15.70
2022-08-27T01:29:50.076Z,15.27
2022-08-27T01:32:22.591Z,14.68
2022-08-27T01:34:51.950Z,16.08
2022-08-27T01:37:23.662Z,15.25
2022-08-27T01:39:59.047Z,13.60
2022-08-27T01:42:33.333Z,15.18
2022-08-27T01:45:07.865Z,17.48
2022-08-27T01:47:38.077Z,20.15
2022-08-27T01:50:09.267Z,21.42
2022-08-27T01:52:37.603Z,19.88
2022-08-27T01:55:13.166Z,21.98
2022-08-27T01:57:42.490Z,20.83
2022-08-27T02:00:17.025Z,20.40
2022-08-27T02:02:47.208Z,23.50
2022-08-27T02:05:16.246Z,24.85
2022-08-27T02:07:46.638Z,27.75
2022-08-27T02:10:23.028Z,29.95
2022-08-27T02:12:52.628Z,27.45
2022-08-27T02:15:23.850Z,25.92
2022-08-27T02:17:52.661Z,23.25
2022-08-27T02:20:23.408Z,23.40
2022-08-27T02:22:56.223Z,24.27
2022-08-27T02:25:29.052Z,25.33
2022-08-27T02:28:01.022Z,22.77
2022-08-27T02:30:32.713Z,25.45
2022-08-27T02:33:02.960Z,26.63
2022-08-27T02:35:33.684Z,27.20
2022-08-27T02:38:02.429Z,23.60
2022-08-27T02:40:32.541Z,26.13
2022-08-27T02:43:01.214Z,25.73
2022-08-27T02:45:29.499Z,27.88
2022-08-27T02:47:57.765Z,26.17
2022-08-27T02:50:27.349Z,27.05
2022-08-27T02:52:55.901Z,28.30
2022-08-27T02:55:24.687Z,29.75
2022-08-27T02:57:54.674Z,24.88
2022-08-27T03:00:26.426Z,28.40
2022-08-27T03:02:54.549Z,30.00
2022-08-27T03:05:24.250Z,26.63
2022-08-27T03:07:52.579Z,28.65
2022-08-27T03:10:23.227Z,26.25
2022-08-27T03:12:52.631Z,24.90
2022-08-27T03:15:22.341Z,27.55
2022-08-27T03:18:08.355Z,27.52
2022-08-27T03:20:40.793Z,24.38
2022-08-27T03:23:10.514Z,26.27
2022-08-27T03:25:39.895Z,28.38
2022-08-27T03:28:17.818Z,27.08
2022-08-27T03:30:55.680Z,25.52
2022-08-27T03:33:23.861Z,27.80
2022-08-27T03:35:52.826Z,26.55
2022-08-27T03:38:22.234Z,24.42
2022-08-27T03:40:51.563Z,24.58
2022-08-27T03:43:23.449Z,26.10
2022-08-27T03:46:01.796Z,23.63
2022-08-27T03:48:32.083Z,28.88
2022-08-27T03:51:06.590Z,26.15
2022-08-27T03:53:36.539Z,25.20
2022-08-27T03:56:06.292Z,25.08
2022-08-27T03:58:35.484Z,25.45
2022-08-27T04:01:07.133Z,26.45
2022-08-27T04:03:36.685Z,25.38
2022-08-27T04:06:06.024Z,26.75
2022-08-27T04:08:34.078Z,23.10
2022-08-27T04:11:06.418Z,22.48
2022-08-27T04:13:34.674Z,24.80
2022-08-27T04:16:07.881Z,23.35
2022-08-27T04:18:36.277Z,24.25
2022-08-27T04:21:11.569Z,24.30
2022-08-27T04:23:41.813Z,21.45
2022-08-27T04:26:12.653Z,22.52
2022-08-27T04:28:40.803Z,19.60
2022-08-27T04:31:16.823Z,22.83
2022-08-27T04:33:51.300Z,21.65
2022-08-27T04:36:21.171Z,21.25
2022-08-27T04:38:50.160Z,21.17
2022-08-27T04:41:21.624Z,20.73
2022-08-27T04:43:53.846Z,21.50
2022-08-27T04:46:27.319Z,18.90
2022-08-27T04:48:59.635Z,23.13
2022-08-27T04:51:30.535Z,23.92
2022-08-27T04:53:59.935Z,21.40
2022-08-27T04:56:30.489Z,21.40
2022-08-27T04:58:58.969Z,22.70
2022-08-27T05:01:30.766Z,21.95
2022-08-27T05:03:59.983Z,25.58
2022-08-27T05:06:29.497Z,18.73
2022-08-27T05:08:58.761Z,23.77
2022-08-27T05:11:32.284Z,22.90
2022-08-27T05:14:03.647Z,21.80
2022-08-27T05:16:36.623Z,21.25
2022-08-27T05:19:08.909Z,23.42
2022-08-27T05:21:41.176Z,22.60
2022-08-27T05:24:09.530Z,21.75
2022-08-27T05:26:39.400Z,21.45
2022-08-27T05:29:08.058Z,21.95
2022-08-27T05:31:37.818Z,23.50
2022-08-27T05:34:10.571Z,23.27
2022-08-27T05:36:47.973Z,20.77
2022-08-27T05:39:18.433Z,24.27
2022-08-27T05:41:46.541Z,25.80
2022-08-27T05:44:40.673Z,24.00
2022-08-27T05:47:06.856Z,25.20
2022-08-27T05:49:35.569Z,26.38
2022-08-27T05:52:05.013Z,23.77
2022-08-27T05:54:33.875Z,25.17
2022-08-27T05:57:02.850Z,24.90
2022-08-27T05:59:48.808Z,22.15
2022-08-27T06:02:18.925Z,22.45
2022-08-27T06:04:47.742Z,21.20
2022-08-27T06:07:16.114Z,22.33
2022-08-27T06:09:44.537Z,22.27
2022-08-27T06:12:13.389Z,23.48
2022-08-27T06:14:42.529Z,23.52
2022-08-27T06:17:11.012Z,23.48
2022-08-27T06:19:42.298Z,23.67
2022-08-27T06:22:11.216Z,20.77
2022-08-27T06:24:42.011Z,22.98
2022-08-27T06:27:14.984Z,21.48
2022-08-27T06:29:44.370Z,22.33
2022-08-27T06:32:15.038Z,19.23
2022-08-27T06:34:44.889Z,22.50
2022-08-27T06:37:13.180Z,21.67
2022-08-27T06:39:42.100Z,21.50
2022-08-27T06:42:13.622Z,23.23
2022-08-27T06:44:43.182Z,21.30
2022-08-27T06:47:12.533Z,20.38
2022-08-27T06:49:43.814Z,19.27
2022-08-27T06:52:16.460Z,17.15
2022-08-27T06:54:45.340Z,19.83
2022-08-27T06:57:13.428Z,20.60
2022-08-27T06:59:41.745Z,20.60
2022-08-27T07:02:10.193Z,17.83
2022-08-27T07:04:38.384Z,18.48
2022-08-27T07:07:08.063Z,18.50
2022-08-27T07:09:37.534Z,19.83
2022-08-27T07:12:08.153Z,18.60
2022-08-27T07:14:38.250Z,18.95
2022-08-27T07:17:09.795Z,19.95
2022-08-27T07:19:41.205Z,16.30
2022-08-27T07:22:10.729Z,17.90
2022-08-27T07:24:41.194Z,18.92
2022-08-27T07:27:09.709Z,17.70
2022-08-27T07:29:38.563Z,15.93
2022-08-27T07:32:07.626Z,16.52
2022-08-27T07:34:36.776Z,18.70
2022-08-27T07:37:05.430Z,18.48
2022-08-27T07:39:33.595Z,19.75
2022-08-27T07:42:21.349Z,17.02
2022-08-27T07:44:49.904Z,16.23
2022-08-27T07:47:19.066Z,19.23
2022-08-27T07:49:47.725Z,16.23
2022-08-27T07:52:17.688Z,18.10
2022-08-27T07:54:45.857Z,18.33
2022-08-27T07:57:15.998Z,17.08
2022-08-27T07:59:44.426Z,18.23
2022-08-27T08:02:13.885Z,18.05
2022-08-27T08:04:42.706Z,20.52
2022-08-27T08:07:11.006Z,16.90
2022-08-27T08:09:40.386Z,20.75
2022-08-27T08:12:08.726Z,18.13
2022-08-27T08:14:38.512Z,20.55
2022-08-27T08:17:10.324Z,17.83
2022-08-27T08:19:40.553Z,17.25
2022-08-27T08:22:09.700Z,18.50
2022-08-27T08:24:38.337Z,19.48
2022-08-27T08:27:07.991Z,19.85
2022-08-27T08:29:39.208Z,18.67
2022-08-27T08:32:08.952Z,21.83
2022-08-27T08:34:37.642Z,19.20
2022-08-27T08:37:07.639Z,17.90
2022-08-27T08:39:38.743Z,20.40
2022-08-27T08:42:23.119Z,18.85
2022-08-27T08:44:55.733Z,18.90
2022-08-27T08:47:30.450Z,19.08
2022-08-27T08:50:08.558Z,19.85
2022-08-27T08:52:51.272Z,21.33
2022-08-27T08:55:35.561Z,19.60
2022-08-27T08:58:22.837Z,22.00
2022-08-27T09:00:57.429Z,21.92
2022-08-27T09:03:27.255Z,19.63
2022-08-27T09:06:02.291Z,19.40
2022-08-27T09:08:41.166Z,20.55
2022-08-27T09:11:21.877Z,22.55
2022-08-27T09:13:56.613Z,20.33
2022-08-27T09:16:26.410Z,20.88
2022-08-27T09:18:55.500Z,18.73
2022-08-27T09:21:40.323Z,21.33
2022-08-27T09:24:16.531Z,21.17
2022-08-27T09:26:47.297Z,23.17
2022-08-27T09:29:23.183Z,22.88
2022-08-27T09:31:58.930Z,20.65
2022-08-27T09:34:36.553Z,21.70
2022-08-27T09:37:12.651Z,20.70
2022-08-27T09:39:49.886Z,19.50
2022-08-27T09:42:31.905Z,21.13
2022-08-27T09:45:00.686Z,21.92
2022-08-27T09:47:31.375Z,23.00
2022-08-27T09:50:09.449Z,24.52
2022-08-27T09:52:51.119Z,22.55
2022-08-27T09:55:30.865Z,23.45
2022-08-27T09:58:00.345Z,21.98
2022-08-27T10:00:37.718Z,22.52
2022-08-27T10:03:10.606Z,23.90
2022-08-27T10:05:45.253Z,23.50
2022-08-27T10:08:26.798Z,23.05
2022-08-27T10:10:59.323Z,23.70
2022-08-27T10:13:34.818Z,23.52
2022-08-27T10:16:41.366Z,22.88
2022-08-27T10:19:26.517Z,22.23
2022-08-27T10:22:09.138Z,22.35
2022-08-27T10:24:56.612Z,23.20
2022-08-27T10:27:36.559Z,23.70
2022-08-27T10:30:10.192Z,21.35
2022-08-27T10:33:03.791Z,20.38
2022-08-27T10:35:47.903Z,21.08
2022-08-27T10:38:29.240Z,20.60
2022-08-27T10:41:09.673Z,19.58
2022-08-27T10:44:11.195Z,17.23
2022-08-27T10:47:02.001Z,18.55
2022-08-27T10:49:46.014Z,19.75
2022-08-27T10:52:24.621Z,18.27
2022-08-27T10:55:00.953Z,21.90
2022-08-27T10:58:00.159Z,23.92
2022-08-27T11:00:43.342Z,23.27
2022-08-27T11:03:17.598Z,21.90
2022-08-27T11:05:50.418Z,26.67
2022-08-27T11:08:27.619Z,27.33
2022-08-27T11:11:31.741Z,28.17
2022-08-27T11:14:00.975Z,29.20
2022-08-27T11:16:45.272Z,25.20
2022-08-27T11:19:20.839Z,27.45
2022-08-27T11:22:04.837Z,25.05
2022-08-27T11:24:44.867Z,25.83
2022-08-27T11:27:19.812Z,25.98
2022-08-27T11:29:52.986Z,25.02
2022-08-27T11:32:42.243Z,24.88
2022-08-27T11:35:24.546Z,25.42
2022-08-27T11:38:25.267Z,29.13
2022-08-27T11:41:21.008Z,27.35
2022-08-27T11:43:49.350Z,28.77
2022-08-27T11:46:26.965Z,28.25
2022-08-27T11:49:02.923Z,24.75
2022-08-27T11:51:35.423Z,27.90
2022-08-27T11:54:07.958Z,24.38
2022-08-27T11:56:43.691Z,22.75
2022-08-27T11:59:22.478Z,26.85
2022-08-27T12:01:53.047Z,28.65
2022-08-27T12:04:34.850Z,28.60
2022-08-27T12:07:11.748Z,28.00
2022-08-27T12:10:02.320Z,29.65
2022-08-27T12:12:49.086Z,25.85
2022-08-27T12:15:30.928Z,27.38
2022-08-27T12:18:20.580Z,26.13
2022-08-27T12:21:04.823Z,24.23
2022-08-27T12:23:46.412Z,22.33
2022-08-27T12:26:32.665Z,23.10
2022-08-27T12:29:31.288Z,24.95
2022-08-27T12:32:21.167Z,27.42
2022-08-27T12:34:59.951Z,27.83
2022-08-27T12:37:35.049Z,26.10
2022-08-27T12:40:12.810Z,26.33
2022-08-27T12:42:41.751Z,23.55
2022-08-27T12:45:21.827Z,26.15
2022-08-27T12:47:51.935Z,26.08
2022-08-27T12:50:30.655Z,23.35
2022-08-27T12:53:25.097Z,23.08
2022-08-27T12:56:20.170Z,24.48
2022-08-27T12:59:04.644Z,25.02
2022-08-27T13:01:57.015Z,23.95
2022-08-27T13:04:30.978Z,26.15
2022-08-27T13:06:59.527Z,27.08
2022-08-27T13:09:31.476Z,25.33
2022-08-27T13:12:03.126Z,23.35
2022-08-27T13:14:38.943Z,22.27
2022-08-27T13:17:13.059Z,21.67
2022-08-27T13:19:51.192Z,20.80
2022-08-27T13:22:24.237Z,23.15
2022-08-27T13:24:56.270Z,21.35
2022-08-27T13:27:27.936Z,20.65
2022-08-27T13:29:56.809Z,23.67
2022-08-27T13:32:31.280Z,23.83
2022-08-27T13:35:02.120Z,24.88
2022-08-27T13:37:39.323Z,21.92
2022-08-27T13:40:10.625Z,20.67
2022-08-27T13:42:45.023Z,23.55
2022-08-27T13:45:13.795Z,22.58
2022-08-27T13:47:49.294Z,21.40
2022-08-27T13:50:25.655Z,20.90
2022-08-27T13:53:20.719Z,23.58
2022-08-27T13:55:50.526Z,21.88
2022-08-27T13:58:26.477Z,21.00
2022-08-27T14:00:56.478Z,20.88
2022-08-27T14:03:34.910Z,20.90
2022-08-27T14:06:04.418Z,19.83
2022-08-27T14:08:36.814Z,20.17
2022-08-27T14:11:10.918Z,22.70
2022-08-27T14:13:44.020Z,24.77
2022-08-27T14:16:27.817Z,20.90
2022-08-27T14:19:09.233Z,20.27
2022-08-27T14:21:43.588Z,21.35
2022-08-27T14:24:14.011Z,23.23
2022-08-27T14:26:42.812Z,21.58
2022-08-27T14:29:11.925Z,21.60
2022-08-27T14:31:41.936Z,20.58
2022-08-27T14:34:11.620Z,20.98
2022-08-27T14:36:44.217Z,20.45
2022-08-27T14:39:14.068Z,21.15
2022-08-27T14:41:43.110Z,23.70
2022-08-27T14:44:13.783Z,21.90
2022-08-27T14:46:42.958Z,22.23
2022-08-27T14:49:22.740Z,18.65
2022-08-27T14:51:51.067Z,18.15
2022-08-27T14:54:19.555Z,18.55
2022-08-27T14:56:48.177Z,18.20
2022-08-27T14:59:16.871Z,18.90
2022-08-27T15:01:45.912Z,18.27
2022-08-27T15:04:16.845Z,17.02
2022-08-27T15:06:45.697Z,17.83
2022-08-27T15:09:16.819Z,17.95
2022-08-27T15:11:47.557Z,17.25
2022-08-27T15:14:23.530Z,15.73
2022-08-27T15:16:53.117Z,16.98
2022-08-27T15:19:26.464Z,15.63
2022-08-27T15:22:01.215Z,17.92
2022-08-27T15:24:43.002Z,19.08
2022-08-27T15:27:11.452Z,15.90
2022-08-27T15:29:41.340Z,16.35
2022-08-27T15:32:16.852Z,17.00
2022-08-27T15:34:47.063Z,17.50
2022-08-27T15:37:15.973Z,16.33
2022-08-27T15:39:44.425Z,19.00
2022-08-27T15:42:13.727Z,18.67
2022-08-27T15:44:49.112Z,18.55
2022-08-27T15:47:19.665Z,18.23
2022-08-27T15:49:49.491Z,17.20
2022-08-27T15:52:22.473Z,17.20
2022-08-27T15:54:51.210Z,17.85
2022-08-27T15:57:21.740Z,16.58
2022-08-27T15:59:51.164Z,17.42
2022-08-27T16:02:24.689Z,13.55
2022-08-27T16:04:54.620Z,15.52
2022-08-27T16:07:22.872Z,14.00
2022-08-27T16:09:51.109Z,15.45
2022-08-27T16:12:25.655Z,14.40
2022-08-27T16:14:55.977Z,12.68
2022-08-27T16:17:26.726Z,13.40
2022-08-27T16:19:56.585Z,14.15
2022-08-27T16:22:25.730Z,15.43
2022-08-27T16:24:53.961Z,14.80
2022-08-27T16:27:22.389Z,13.25
2022-08-27T16:29:51.515Z,13.93
2022-08-27T16:32:20.488Z,15.07
2022-08-27T16:34:55.749Z,13.35
2022-08-27T16:37:26.343Z,12.07
2022-08-27T16:39:55.433Z,14.52
2022-08-27T16:42:23.807Z,14.00
2022-08-27T16:44:52.631Z,16.20
2022-08-27T16:47:21.010Z,14.57
2022-08-27T16:50:06.928Z,14.93
2022-08-27T16:52:37.516Z,14.70
2022-08-27T16:55:06.812Z,15.75
2022-08-27T16:57:35.098Z,13.93
2022-08-27T17:00:04.299Z,14.63
2022-08-27T17:02:35.358Z,17.15
2022-08-27T17:07:53.905Z,13.48
2022-08-27T17:10:22.519Z,16.60
2022-08-27T17:12:50.485Z,14.85
2022-08-27T17:15:19.674Z,14.90
2022-08-27T17:17:49.140Z,14.48
2022-08-27T17:20:17.435Z,14.13
2022-08-27T17:22:45.595Z,13.60
2022-08-27T17:25:15.010Z,13.13
2022-08-27T17:27:43.664Z,15.52
2022-08-27T17:30:13.055Z,12.75
2022-08-27T17:32:45.411Z,15.45
2022-08-27T17:35:14.105Z,12.35
2022-08-27T17:37:44.140Z,15.38
2022-08-27T17:40:14.339Z,15.68
2022-08-27T17:42:42.626Z,13.88
2022-08-27T17:45:12.639Z,16.63
2022-08-27T17:47:40.754Z,15.50
2022-08-27T17:50:11.551Z,14.15
2022-08-27T17:52:40.363Z,16.63
2022-08-27T17:55:09.694Z,14.73
2022-08-27T17:57:40.736Z,15.18
2022-08-27T18:00:14.341Z,16.70
2022-08-27T18:02:47.391Z,16.08
2022-08-27T18:05:18.574Z,17.48
2022-08-27T18:07:48.608Z,16.58
2022-08-27T18:10:22.714Z,16.08
2022-08-27T18:12:53.428Z,18.65
2022-08-27T18:15:26.868Z,16.73
2022-08-27T18:17:56.992Z,18.08
2022-08-27T18:20:29.850Z,15.93
2022-08-27T18:22:58.974Z,16.42
2022-08-27T18:25:35.948Z,15.63
2022-08-27T18:28:10.245Z,16.73
2022-08-27T18:30:41.437Z,17.63
2022-08-27T18:33:10.195Z,17.98
2022-08-27T18:35:40.782Z,16.70
2022-08-27T18:38:09.775Z,17.00
2022-08-27T18:40:42.842Z,16.92
2022-08-27T18:43:13.121Z,16.25
2022-08-27T18:45:41.328Z,16.10
2022-08-27T18:48:15.472Z,17.98
2022-08-27T18:50:50.625Z,16.55
2022-08-27T18:53:21.462Z,17.10
2022-08-27T18:55:51.857Z,18.73
2022-08-27T18:58:21.440Z,16.45
2022-08-27T19:00:55.277Z,16.70
2022-08-27T19:03:28.574Z,17.20
2022-08-27T19:05:57.449Z,16.10
2022-08-27T19:08:29.014Z,14.82
2022-08-27T19:10:58.221Z,15.25
2022-08-27T19:13:28.085Z,14.38
2022-08-27T19:16:00.193Z,16.10
2022-08-27T19:18:31.186Z,15.00
2022-08-27T19:20:59.803Z,15.93
2022-08-27T19:23:28.189Z,14.27
2022-08-27T19:25:57.409Z,15.43
2022-08-27T19:28:36.568Z,13.13
2022-08-27T19:31:05.223Z,14.88
2022-08-27T19:33:33.517Z,13.07
2022-08-27T19:36:03.173Z,15.15
2022-08-27T19:38:34.321Z,13.50
2022-08-27T19:41:04.314Z,15.15
2022-08-27T19:43:34.568Z,14.40
2022-08-27T19:46:05.615Z,15.35
2022-08-27T19:48:35.989Z,16.95
2022-08-27T19:51:04.221Z,15.77
2022-08-27T19:53:33.074Z,14.85
2022-08-27T19:56:01.171Z,17.58
2022-08-27T19:58:29.862Z,16.23
2022-08-27T20:00:59.416Z,14.35
2022-08-27T20:03:28.474Z,14.10
2022-08-27T20:05:57.193Z,16.25
2022-08-27T20:08:25.507Z,15.48
2022-08-27T20:10:54.038Z,15.38
2022-08-27T20:13:22.730Z,14.13
2022-08-27T20:15:52.180Z,15.13
2022-08-27T20:18:23.166Z,13.57
2022-08-27T20:20:51.316Z,14.18
2022-08-27T20:23:20.409Z,13.60
2022-08-27T20:25:48.528Z,15.50
2022-08-27T20:28:38.492Z,13.38
2022-08-27T20:31:06.267Z,15.05
2022-08-27T20:33:36.194Z,14.15
2022-08-27T20:36:05.189Z,14.40
2022-08-27T20:38:33.792Z,14.85
2022-08-27T20:41:02.727Z,13.63
2022-08-27T20:43:30.861Z,15.15
2022-08-27T20:46:00.629Z,13.23
2022-08-27T20:48:29.231Z,14.80
2022-08-27T20:50:59.472Z,13.13
2022-08-27T20:53:28.479Z,13.77
2022-08-27T20:55:56.776Z,13.55
2022-08-27T20:58:43.765Z,15.70
2022-08-27T21:01:12.457Z,14.43
2022-08-27T21:03:41.181Z,15.98
2022-08-27T21:06:11.334Z,15.00
2022-08-27T21:08:41.001Z,14.80
2022-08-27T21:11:13.207Z,15.60
2022-08-27T21:13:55.707Z,15.85
2022-08-27T21:16:25.926Z,14.43
2022-08-27T21:18:55.762Z,12.93
2022-08-27T21:21:25.660Z,13.80
2022-08-27T21:23:53.860Z,14.02
2022-08-27T21:26:22.960Z,14.25
2022-08-27T21:28:55.442Z,14.73
2022-08-27T21:31:25.489Z,13.90
2022-08-27T21:33:53.665Z,14.63
2022-08-27T21:36:21.956Z,16.58
2022-08-27T21:38:52.197Z,15.25
2022-08-27T21:41:22.030Z,13.48
2022-08-27T21:43:51.202Z,15.57
2022-08-27T21:46:20.360Z,16.50
2022-08-27T21:48:57.662Z,14.73
2022-08-27T21:51:27.904Z,15.35
2022-08-27T21:53:59.962Z,14.00
2022-08-27T21:56:29.563Z,16.73
2022-08-27T21:58:57.986Z,13.82
2022-08-27T22:01:26.533Z,15.68
2022-08-27T22:03:55.171Z,14.75
2022-08-27T22:06:23.447Z,15.35
2022-08-27T22:08:52.250Z,13.90
2022-08-27T22:11:24.148Z,15.40
2022-08-27T22:13:53.621Z,14.30
2022-08-27T22:16:21.775Z,17.75
2022-08-27T22:18:54.876Z,16.20
2022-08-27T22:21:24.032Z,16.38
2022-08-27T22:23:52.749Z,14.10
2022-08-27T22:26:23.534Z,16.33
2022-08-27T22:28:51.934Z,14.40
2022-08-27T22:31:21.514Z,14.02
2022-08-27T22:33:50.111Z,15.23
2022-08-27T22:36:18.321Z,14.10
2022-08-27T22:38:47.687Z,15.05
2022-08-27T22:41:18.473Z,14.70
2022-08-27T22:43:48.250Z,12.70
2022-08-27T22:46:16.995Z,15.63
2022-08-27T22:48:45.843Z,15.63
2022-08-27T22:51:14.034Z,16.33
2022-08-27T22:53:43.150Z,14.85
2022-08-27T22:56:11.318Z,13.57
2022-08-27T22:58:40.579Z,14.77
2022-08-27T23:01:20.800Z,14.52
2022-08-27T23:03:49.523Z,14.10
2022-08-27T23:06:18.222Z,15.05
2022-08-27T23:08:46.570Z,13.45
2022-08-27T23:11:16.097Z,12.98
2022-08-27T23:13:44.954Z,13.85
2022-08-27T23:16:14.655Z,12.63
2022-08-27T23:18:45.638Z,14.32
2022-08-27T23:21:14.436Z,14.23
2022-08-27T23:23:43.071Z,14.25
2022-08-27T23:26:28.909Z,12.20
2022-08-27T23:28:56.986Z,13.23
2022-08-27T23:31:26.125Z,12.55
2022-08-27T23:33:56.318Z,13.00
2022-08-27T23:36:24.787Z,12.20
2022-08-27T23:38:53.550Z,10.98
2022-08-27T23:41:23.037Z,12.77
2022-08-27T23:43:51.258Z,12.32
2022-08-27T23:46:19.407Z,13.85
2022-08-27T23:48:47.702Z,11.60
2022-08-27T23:51:17.762Z,11.35
2022-08-27T23:53:45.894Z,12.35
2022-08-27T23:56:14.703Z,12.48
2022-08-27T23:58:42.738Z,12.35
